sensor_id;sensor_type;location;lat;lon;timestamp;P1;durP1;ratioP1;P2;durP2;ratioP2
29414;SDS011;20303;48.302;11.914;2023-09-08T00:06:26;9.25;;;5.60;;
29414;SDS011;20303;48.302;11.914;2023-09-08T00:16:27;6.28;;;5.30;;
29414;SDS011;20303;48.302;11.914;2023-09-08T00:26:29;6.50;;;4.97;;
29414;SDS011;20303;48.302;11.914;2023-09-08T00:36:31;6.70;;;5.60;;
29414;SDS011;20303;48.302;11.914;2023-09-08T00:46:32;5.75;;;5.10;;
29414;SDS011;20303;48.302;11.914;2023-09-08T00:56:34;5.93;;;5.30;;
29414;SDS011;20303;48.302;11.914;2023-09-08T01:06:36;7.95;;;5.18;;
29414;SDS011;20303;48.302;11.914;2023-09-08T01:16:37;7.00;;;5.38;;
29414;SDS011;20303;48.302;11.914;2023-09-08T01:26:40;5.88;;;5.30;;
29414;SDS011;20303;48.302;11.914;2023-09-08T01:36:42;6.07;;;5.00;;
29414;SDS011;20303;48.302;11.914;2023-09-08T01:46:43;6.18;;;5.28;;
29414;SDS011;20303;48.302;11.914;2023-09-08T01:56:44;7.53;;;5.22;;
29414;SDS011;20303;48.302;11.914;2023-09-08T02:06:45;6.43;;;5.20;;
29414;SDS011;20303;48.302;11.914;2023-09-08T02:16:46;6.65;;;5.63;;
29414;SDS011;20303;48.302;11.914;2023-09-08T02:26:47;5.47;;;4.97;;
29414;SDS011;20303;48.302;11.914;2023-09-08T02:36:49;6.28;;;5.07;;
29414;SDS011;20303;48.302;11.914;2023-09-08T02:46:50;5.70;;;5.10;;
29414;SDS011;20303;48.302;11.914;2023-09-08T02:56:51;5.78;;;4.97;;
29414;SDS011;20303;48.302;11.914;2023-09-08T03:06:53;5.68;;;5.13;;
29414;SDS011;20303;48.302;11.914;2023-09-08T03:16:54;6.38;;;5.18;;
29414;SDS011;20303;48.302;11.914;2023-09-08T03:26:55;6.40;;;5.00;;
29414;SDS011;20303;48.302;11.914;2023-09-08T03:36:57;6.70;;;5.38;;
29414;SDS011;20303;48.302;11.914;2023-09-08T03:46:58;6.75;;;4.93;;
29414;SDS011;20303;48.302;11.914;2023-09-08T03:56:59;6.10;;;5.10;;
29414;SDS011;20303;48.302;11.914;2023-09-08T04:07:00;6.50;;;5.25;;
29414;SDS011;20303;48.302;11.914;2023-09-08T04:17:01;7.95;;;5.28;;
29414;SDS011;20303;48.302;11.914;2023-09-08T04:27:03;7.80;;;5.70;;
29414;SDS011;20303;48.302;11.914;2023-09-08T04:37:04;8.65;;;5.32;;
29414;SDS011;20303;48.302;11.914;2023-09-08T04:47:05;7.50;;;5.90;;
29414;SDS011;20303;48.302;11.914;2023-09-08T04:57:06;10.57;;;5.88;;
29414;SDS011;20303;48.302;11.914;2023-09-08T05:07:07;6.80;;;5.15;;
29414;SDS011;20303;48.302;11.914;2023-09-08T05:17:08;6.82;;;5.82;;
29414;SDS011;20303;48.302;11.914;2023-09-08T05:27:09;6.43;;;5.10;;
29414;SDS011;20303;48.302;11.914;2023-09-08T05:37:10;8.68;;;5.90;;
29414;SDS011;20303;48.302;11.914;2023-09-08T05:47:11;13.30;;;6.03;;
29414;SDS011;20303;48.302;11.914;2023-09-08T05:57:13;10.48;;;5.97;;
29414;SDS011;20303;48.302;11.914;2023-09-08T06:07:26;10.98;;;5.78;;
29414;SDS011;20303;48.302;11.914;2023-09-08T06:17:54;9.57;;;6.32;;
29414;SDS011;20303;48.302;11.914;2023-09-08T06:27:56;12.73;;;6.50;;
29414;SDS011;20303;48.302;11.914;2023-09-08T06:37:57;9.27;;;6.68;;
29414;SDS011;20303;48.302;11.914;2023-09-08T06:47:59;13.48;;;6.70;;
29414;SDS011;20303;48.302;11.914;2023-09-08T06:58:08;9.48;;;6.70;;
29414;SDS011;20303;48.302;11.914;2023-09-08T07:29:41;8.77;;;6.47;;
29414;SDS011;20303;48.302;11.914;2023-09-08T07:39:43;8.15;;;6.72;;
29414;SDS011;20303;48.302;11.914;2023-09-08T07:49:51;10.52;;;6.95;;
29414;SDS011;20303;48.302;11.914;2023-09-08T08:00:16;10.68;;;6.70;;
29414;SDS011;20303;48.302;11.914;2023-09-08T08:10:17;8.77;;;6.80;;
29414;SDS011;20303;48.302;11.914;2023-09-08T08:20:24;9.05;;;6.85;;
29414;SDS011;20303;48.302;11.914;2023-09-08T08:30:39;7.65;;;6.72;;
29414;SDS011;20303;48.302;11.914;2023-09-08T08:41:06;7.35;;;6.40;;
29414;SDS011;20303;48.302;11.914;2023-09-08T08:51:35;8.80;;;6.80;;
29414;SDS011;20303;48.302;11.914;2023-09-08T09:02:18;9.65;;;6.68;;
29414;SDS011;20303;48.302;11.914;2023-09-08T09:24:00;8.23;;;6.40;;
29414;SDS011;20303;48.302;11.914;2023-09-08T09:45:59;13.35;;;7.32;;
29414;SDS011;20303;48.302;11.914;2023-09-08T09:56:05;7.55;;;6.78;;
29414;SDS011;20303;48.302;11.914;2023-09-08T10:06:09;7.60;;;6.80;;
29414;SDS011;20303;48.302;11.914;2023-09-08T10:16:22;9.52;;;6.97;;
29414;SDS011;20303;48.302;11.914;2023-09-08T10:26:30;8.77;;;6.63;;
29414;SDS011;20303;48.302;11.914;2023-09-08T10:36:31;6.93;;;6.18;;
29414;SDS011;20303;48.302;11.914;2023-09-08T10:46:56;7.25;;;6.40;;
29414;SDS011;20303;48.302;11.914;2023-09-08T10:57:01;8.70;;;6.50;;
29414;SDS011;20303;48.302;11.914;2023-09-08T11:07:08;7.03;;;6.32;;
29414;SDS011;20303;48.302;11.914;2023-09-08T11:27:28;7.45;;;6.65;;
29414;SDS011;20303;48.302;11.914;2023-09-08T11:37:42;7.85;;;6.70;;
29414;SDS011;20303;48.302;11.914;2023-09-08T11:47:45;8.18;;;6.82;;
29414;SDS011;20303;48.302;11.914;2023-09-08T11:57:52;8.05;;;7.25;;
29414;SDS011;20303;48.302;11.914;2023-09-08T12:08:06;7.20;;;6.50;;
29414;SDS011;20303;48.302;11.914;2023-09-08T12:18:08;7.85;;;6.60;;
29414;SDS011;20303;48.302;11.914;2023-09-08T12:28:32;7.65;;;6.85;;
29414;SDS011;20303;48.302;11.914;2023-09-08T12:38:33;7.60;;;6.80;;
29414;SDS011;20303;48.302;11.914;2023-09-08T12:48:34;7.20;;;6.50;;
29414;SDS011;20303;48.302;11.914;2023-09-08T12:58:36;8.05;;;7.07;;
29414;SDS011;20303;48.302;11.914;2023-09-08T13:08:37;7.30;;;6.60;;
29414;SDS011;20303;48.302;11.914;2023-09-08T13:18:38;7.65;;;6.95;;
29414;SDS011;20303;48.302;11.914;2023-09-08T13:28:43;7.47;;;6.78;;
29414;SDS011;20303;48.302;11.914;2023-09-08T13:38:48;7.63;;;6.80;;
29414;SDS011;20303;48.302;11.914;2023-09-08T13:49:08;8.10;;;7.30;;
29414;SDS011;20303;48.302;11.914;2023-09-08T13:59:42;8.07;;;7.28;;
29414;SDS011;20303;48.302;11.914;2023-09-08T14:09:54;8.38;;;7.55;;
29414;SDS011;20303;48.302;11.914;2023-09-08T14:19:55;7.60;;;6.85;;
29414;SDS011;20303;48.302;11.914;2023-09-08T14:41:21;7.97;;;7.18;;
29414;SDS011;20303;48.302;11.914;2023-09-08T15:13:49;7.72;;;6.88;;
29414;SDS011;20303;48.302;11.914;2023-09-08T15:24:37;8.35;;;7.43;;
29414;SDS011;20303;48.302;11.914;2023-09-08T15:34:48;7.38;;;6.65;;
29414;SDS011;20303;48.302;11.914;2023-09-08T15:44:53;7.55;;;6.82;;
29414;SDS011;20303;48.302;11.914;2023-09-08T16:05:34;7.60;;;6.90;;
29414;SDS011;20303;48.302;11.914;2023-09-08T16:15:40;8.52;;;7.20;;
29414;SDS011;20303;48.302;11.914;2023-09-08T16:25:43;7.63;;;6.85;;
29414;SDS011;20303;48.302;11.914;2023-09-08T16:35:44;8.07;;;7.28;;
29414;SDS011;20303;48.302;11.914;2023-09-08T16:45:45;7.60;;;6.90;;
29414;SDS011;20303;48.302;11.914;2023-09-08T16:55:52;9.27;;;8.00;;
29414;SDS011;20303;48.302;11.914;2023-09-08T17:05:53;15.25;;;9.00;;
29414;SDS011;20303;48.302;11.914;2023-09-08T17:15:57;12.02;;;8.65;;
29414;SDS011;20303;48.302;11.914;2023-09-08T17:25:58;11.55;;;9.30;;
29414;SDS011;20303;48.302;11.914;2023-09-08T17:36:15;14.85;;;9.65;;
29414;SDS011;20303;48.302;11.914;2023-09-08T17:46:42;14.27;;;9.43;;
29414;SDS011;20303;48.302;11.914;2023-09-08T17:57:35;10.73;;;9.10;;
29414;SDS011;20303;48.302;11.914;2023-09-08T18:08:33;10.98;;;9.05;;
29414;SDS011;20303;48.302;11.914;2023-09-08T18:19:18;9.98;;;8.45;;
29414;SDS011;20303;48.302;11.914;2023-09-08T18:29:47;13.95;;;8.77;;
29414;SDS011;20303;48.302;11.914;2023-09-08T18:40:24;10.45;;;8.93;;
29414;SDS011;20303;48.302;11.914;2023-09-08T19:01:14;10.55;;;8.57;;
29414;SDS011;20303;48.302;11.914;2023-09-08T19:11:56;12.57;;;8.45;;
29414;SDS011;20303;48.302;11.914;2023-09-08T19:22:34;9.63;;;8.13;;
29414;SDS011;20303;48.302;11.914;2023-09-08T19:32:39;10.20;;;8.85;;
29414;SDS011;20303;48.302;11.914;2023-09-08T19:43:03;11.02;;;8.60;;
29414;SDS011;20303;48.302;11.914;2023-09-08T19:53:18;10.32;;;8.38;;
29414;SDS011;20303;48.302;11.914;2023-09-08T20:04:03;9.95;;;8.50;;
29414;SDS011;20303;48.302;11.914;2023-09-08T20:25:23;10.65;;;8.48;;
29414;SDS011;20303;48.302;11.914;2023-09-08T20:35:36;9.57;;;8.65;;
29414;SDS011;20303;48.302;11.914;2023-09-08T20:46:00;10.63;;;8.88;;
29414;SDS011;20303;48.302;11.914;2023-09-08T20:56:32;10.52;;;8.80;;
29414;SDS011;20303;48.302;11.914;2023-09-08T21:06:39;11.00;;;8.82;;
29414;SDS011;20303;48.302;11.914;2023-09-08T21:17:09;14.63;;;9.13;;
29414;SDS011;20303;48.302;11.914;2023-09-08T21:27:13;13.45;;;9.63;;
29414;SDS011;20303;48.302;11.914;2023-09-08T21:37:14;13.95;;;9.82;;
29414;SDS011;20303;48.302;11.914;2023-09-08T21:47:15;14.50;;;8.80;;
29414;SDS011;20303;48.302;11.914;2023-09-08T21:57:16;12.23;;;9.05;;
29414;SDS011;20303;48.302;11.914;2023-09-08T22:07:17;11.90;;;8.75;;
29414;SDS011;20303;48.302;11.914;2023-09-08T22:17:18;12.90;;;9.00;;
29414;SDS011;20303;48.302;11.914;2023-09-08T22:27:19;10.65;;;8.65;;
29414;SDS011;20303;48.302;11.914;2023-09-08T22:37:20;10.40;;;8.90;;
29414;SDS011;20303;48.302;11.914;2023-09-08T22:47:21;9.55;;;8.55;;
29414;SDS011;20303;48.302;11.914;2023-09-08T22:57:22;9.20;;;8.30;;
29414;SDS011;20303;48.302;11.914;2023-09-08T23:07:23;9.13;;;8.23;;
29414;SDS011;20303;48.302;11.914;2023-09-08T23:17:24;10.27;;;8.70;;
29414;SDS011;20303;48.302;11.914;2023-09-08T23:27:25;9.45;;;8.45;;
29414;SDS011;20303;48.302;11.914;2023-09-08T23:37:26;9.15;;;8.18;;
29414;SDS011;20303;48.302;11.914;2023-09-08T23:47:27;9.20;;;8.20;;
29414;SDS011;20303;48.302;11.914;2023-09-08T23:57:28;9.23;;;8.32;;
